createdAt,value
2023-05-24T00:02:02.205Z,20.60
2023-05-24T00:05:59.757Z,19.20
2023-05-24T00:10:02.300Z,18.40
2023-05-24T00:14:06.505Z,19.70
2023-05-24T00:18:10.736Z,19.00
2023-05-24T00:22:15.023Z,19.40
2023-05-24T00:26:19.032Z,22.30
2023-05-24T00:33:59.356Z,18.70
2023-05-24T00:37:52.364Z,20.00
2023-05-24T00:41:39.027Z,20.10
2023-05-24T00:45:36.039Z,18.80
2023-05-24T00:49:29.582Z,19.80
2023-05-24T00:53:33.685Z,20.60
2023-05-24T00:57:20.576Z,16.70
2023-05-24T01:00:29.883Z,18.70
2023-05-24T01:03:16.767Z,15.90
2023-05-24T01:06:16.138Z,16.70
2023-05-24T01:09:39.292Z,20.60
2023-05-24T01:12:47.513Z,19.70
2023-05-24T01:16:07.918Z,16.90
2023-05-24T01:19:43.485Z,19.50
2023-05-24T01:22:47.587Z,17.00
2023-05-24T01:25:53.032Z,18.90
2023-05-24T01:28:47.676Z,20.60
2023-05-24T01:32:04.541Z,20.10
2023-05-24T01:35:01.960Z,20.00
2023-05-24T01:37:54.798Z,23.00
2023-05-24T01:40:47.503Z,26.60
2023-05-24T01:43:45.577Z,18.90
2023-05-24T01:47:03.567Z,21.40
2023-05-24T01:50:18.720Z,20.60
2023-05-24T01:53:31.924Z,21.10
2023-05-24T01:56:36.192Z,21.60
2023-05-24T01:59:58.554Z,20.60
2023-05-24T02:03:10.627Z,19.30
2023-05-24T02:06:26.767Z,17.50
2023-05-24T02:09:31.169Z,19.80
2023-05-24T02:12:22.319Z,22.20
2023-05-24T02:15:35.090Z,19.30
2023-05-24T02:18:35.002Z,19.60
2023-05-24T02:21:57.580Z,19.30
2023-05-24T02:24:54.536Z,22.60
2023-05-24T02:27:47.287Z,22.70
2023-05-24T02:30:43.828Z,17.30
2023-05-24T02:33:33.929Z,24.20
2023-05-24T02:36:48.238Z,15.80
2023-05-24T02:39:45.507Z,19.40
2023-05-24T02:42:29.062Z,16.50
2023-05-24T02:45:14.907Z,16.90
2023-05-24T02:48:21.320Z,16.10
2023-05-24T02:51:13.410Z,19.40
2023-05-24T02:54:15.855Z,14.40
2023-05-24T02:57:06.614Z,13.50
2023-05-24T03:00:20.328Z,12.70
2023-05-24T03:03:30.844Z,13.10
2023-05-24T03:06:29.577Z,12.60
2023-05-24T03:09:45.831Z,15.50
2023-05-24T03:12:43.243Z,12.00
2023-05-24T03:15:49.847Z,12.40
2023-05-24T03:18:38.549Z,13.60
2023-05-24T03:21:44.937Z,10.70
2023-05-24T03:24:31.911Z,21.60
2023-05-24T03:27:27.447Z,10.30
2023-05-24T03:30:23.679Z,10.60
2023-05-24T03:33:26.449Z,10.30
2023-05-24T03:36:21.287Z,15.50
2023-05-24T03:39:18.468Z,11.20
2023-05-24T03:42:42.219Z,12.00
2023-05-24T03:45:39.761Z,10.20
2023-05-24T03:48:32.672Z,14.30
2023-05-24T03:51:29.436Z,8.80
2023-05-24T03:54:19.007Z,7.70
2023-05-24T03:57:14.668Z,11.40
2023-05-24T04:00:01.351Z,7.70
2023-05-24T04:03:11.114Z,10.80
2023-05-24T04:05:58.634Z,10.10
2023-05-24T04:09:09.925Z,10.60
2023-05-24T04:12:13.280Z,9.10
2023-05-24T04:15:16.413Z,12.00
2023-05-24T04:18:11.417Z,13.50
2023-05-24T04:21:05.305Z,25.80
2023-05-24T04:23:56.059Z,18.20
2023-05-24T04:26:58.432Z,23.00
2023-05-24T04:29:49.894Z,20.40
2023-05-24T04:33:02.074Z,23.60
2023-05-24T04:35:52.680Z,21.60
2023-05-24T04:39:03.754Z,20.50
2023-05-24T04:42:00.593Z,20.40
2023-05-24T04:44:46.676Z,21.80
2023-05-24T04:47:40.701Z,25.90
2023-05-24T04:50:46.559Z,20.20
2023-05-24T04:53:33.458Z,23.10
2023-05-24T04:56:42.605Z,21.90
2023-05-24T04:59:31.376Z,22.00
2023-05-24T05:02:27.175Z,16.50
2023-05-24T05:05:46.946Z,20.10
2023-05-24T05:08:53.051Z,17.30
2023-05-24T05:12:00.239Z,19.20
2023-05-24T05:15:03.966Z,18.90
2023-05-24T05:17:55.995Z,20.50
2023-05-24T05:20:47.477Z,16.30
2023-05-24T05:23:55.434Z,18.90
2023-05-24T05:26:53.725Z,16.00
2023-05-24T05:30:00.453Z,15.80
2023-05-24T05:32:46.263Z,15.00
2023-05-24T05:35:41.552Z,20.90
2023-05-24T05:38:44.948Z,16.40
2023-05-24T05:41:45.650Z,15.80
2023-05-24T05:47:43.299Z,11.70
2023-05-24T05:50:38.311Z,15.40
2023-05-24T05:53:38.025Z,12.30
2023-05-24T05:56:41.041Z,15.60
2023-05-24T05:59:36.052Z,11.90
2023-05-24T06:02:44.842Z,12.50
2023-05-24T06:05:42.096Z,13.30
2023-05-24T06:08:41.048Z,10.40
2023-05-24T06:11:30.197Z,9.60
2023-05-24T06:14:25.640Z,11.70
2023-05-24T06:17:09.719Z,9.60
2023-05-24T06:19:53.981Z,10.30
2023-05-24T06:23:00.233Z,10.60
2023-05-24T06:25:52.468Z,9.10
2023-05-24T06:28:59.228Z,7.40
2023-05-24T06:32:01.167Z,7.40
2023-05-24T06:34:46.974Z,7.40
2023-05-24T06:37:53.594Z,4.00
2023-05-24T06:40:50.703Z,4.90
2023-05-24T06:43:46.370Z,5.50
2023-05-24T06:46:35.355Z,4.90
2023-05-24T06:49:34.534Z,3.20
2023-05-24T06:52:41.422Z,5.70
2023-05-24T06:55:27.965Z,4.90
2023-05-24T06:58:24.557Z,2.30
2023-05-24T07:01:51.787Z,6.10
2023-05-24T07:04:35.422Z,2.50
2023-05-24T07:07:33.791Z,3.50
2023-05-24T07:10:28.396Z,2.20
2023-05-24T07:13:30.852Z,2.40
2023-05-24T07:16:27.901Z,3.70
2023-05-24T07:19:14.198Z,5.00
2023-05-24T07:22:09.543Z,8.50
2023-05-24T07:25:05.605Z,3.60
2023-05-24T07:28:01.144Z,4.70
2023-05-24T07:31:05.224Z,2.30
2023-05-24T07:34:24.696Z,3.30
2023-05-24T07:37:13.566Z,4.40
2023-05-24T07:40:22.282Z,3.00
2023-05-24T07:43:12.900Z,5.00
2023-05-24T07:46:18.693Z,3.00
2023-05-24T07:49:18.320Z,6.30
2023-05-24T07:52:06.249Z,3.10
2023-05-24T07:55:13.041Z,3.30
2023-05-24T07:58:22.511Z,5.90
2023-05-24T08:01:14.615Z,4.90
2023-05-24T08:04:18.476Z,6.60
2023-05-24T08:07:27.015Z,6.00
2023-05-24T08:10:14.088Z,4.20
2023-05-24T08:13:10.821Z,6.50
2023-05-24T08:15:59.598Z,4.20
2023-05-24T08:18:46.146Z,4.90
2023-05-24T08:21:35.218Z,6.00
2023-05-24T08:24:35.106Z,6.00
2023-05-24T08:27:28.894Z,4.40
2023-05-24T08:30:40.532Z,5.50
2023-05-24T08:33:56.138Z,5.00
2023-05-24T08:37:16.289Z,7.20
2023-05-24T08:40:09.804Z,11.30
2023-05-24T08:43:02.437Z,7.00
2023-05-24T08:46:07.193Z,8.00
2023-05-24T08:49:12.805Z,6.30
2023-05-24T08:52:01.484Z,10.40
2023-05-24T08:54:56.464Z,10.00
2023-05-24T08:58:08.187Z,11.50
2023-05-24T09:01:07.809Z,9.60
2023-05-24T09:03:55.475Z,7.80
2023-05-24T09:06:47.805Z,11.80
2023-05-24T09:09:50.264Z,12.30
2023-05-24T09:12:38.232Z,14.80
2023-05-24T09:15:34.570Z,10.40
2023-05-24T09:18:23.621Z,10.40
2023-05-24T09:21:13.676Z,10.60
2023-05-24T09:24:22.872Z,11.60
2023-05-24T09:27:09.713Z,13.10
2023-05-24T09:30:14.613Z,12.50
2023-05-24T09:33:02.181Z,10.80
2023-05-24T09:35:51.791Z,11.90
2023-05-24T09:39:03.325Z,14.10
2023-05-24T09:41:57.292Z,14.00
2023-05-24T09:44:51.516Z,12.90
2023-05-24T09:47:45.139Z,14.90
2023-05-24T09:50:31.313Z,13.10
2023-05-24T09:53:22.544Z,12.40
2023-05-24T09:56:10.341Z,13.20
2023-05-24T09:59:10.596Z,15.00
2023-05-24T10:02:38.235Z,14.20
2023-05-24T10:05:37.275Z,13.80
2023-05-24T10:08:24.651Z,16.50
2023-05-24T10:11:13.390Z,15.80
2023-05-24T10:13:59.943Z,17.20
2023-05-24T10:16:43.363Z,16.80
2023-05-24T10:19:29.721Z,16.30
2023-05-24T10:22:32.960Z,16.20
2023-05-24T10:25:35.024Z,13.40
2023-05-24T10:28:31.615Z,15.00
2023-05-24T10:31:44.523Z,13.40
2023-05-24T10:34:41.830Z,16.00
2023-05-24T10:37:37.335Z,13.40
2023-05-24T10:40:25.942Z,19.80
2023-05-24T10:43:11.744Z,17.50
2023-05-24T10:46:08.495Z,14.60
2023-05-24T10:49:13.883Z,21.40
2023-05-24T10:52:07.520Z,13.90
2023-05-24T10:55:18.555Z,12.10
2023-05-24T10:58:06.224Z,14.50
2023-05-24T11:00:52.177Z,13.60
2023-05-24T11:03:38.837Z,16.50
2023-05-24T11:06:45.610Z,13.20
2023-05-24T11:09:32.766Z,16.70
2023-05-24T11:12:18.026Z,14.60
2023-05-24T11:15:04.955Z,21.10
2023-05-24T11:18:24.932Z,15.80
2023-05-24T11:21:09.295Z,17.20
2023-05-24T11:24:03.934Z,17.60
2023-05-24T11:26:59.915Z,11.20
2023-05-24T11:30:04.443Z,16.10
2023-05-24T11:32:51.223Z,19.40
2023-05-24T11:35:40.216Z,14.30
2023-05-24T11:38:36.784Z,14.70
2023-05-24T11:41:23.096Z,13.90
2023-05-24T11:44:11.238Z,15.90
2023-05-24T11:47:04.721Z,21.10
2023-05-24T11:49:59.123Z,13.80
2023-05-24T11:52:42.568Z,17.60
2023-05-24T11:55:41.591Z,18.30
2023-05-24T11:58:47.870Z,18.50
2023-05-24T12:01:31.042Z,15.50
2023-05-24T12:04:19.843Z,17.50
2023-05-24T12:07:14.317Z,19.40
2023-05-24T12:10:00.878Z,19.60
2023-05-24T12:12:46.371Z,17.10
2023-05-24T12:15:32.383Z,19.40
2023-05-24T12:18:28.617Z,18.30
2023-05-24T12:21:15.814Z,17.10
2023-05-24T12:24:31.663Z,16.10
2023-05-24T12:27:26.524Z,15.10
2023-05-24T12:30:18.806Z,15.90
2023-05-24T12:33:02.030Z,18.40
2023-05-24T12:35:51.361Z,18.70
2023-05-24T12:38:35.015Z,21.70
2023-05-24T12:41:21.553Z,23.20
2023-05-24T12:44:04.893Z,17.10
2023-05-24T12:47:08.851Z,23.20
2023-05-24T12:49:52.653Z,23.00
2023-05-24T12:52:39.097Z,22.30
2023-05-24T12:55:42.737Z,24.60
2023-05-24T12:58:48.569Z,20.20
2023-05-24T13:01:50.234Z,19.20
2023-05-24T13:04:45.737Z,18.20
2023-05-24T13:07:50.953Z,19.30
2023-05-24T13:10:57.458Z,17.20
2023-05-24T13:14:12.840Z,17.80
2023-05-24T13:17:17.917Z,19.90
2023-05-24T13:20:51.055Z,17.80
2023-05-24T13:23:52.957Z,22.40
2023-05-24T13:27:03.372Z,18.70
2023-05-24T13:30:05.903Z,19.90
2023-05-24T13:36:17.366Z,20.60
2023-05-24T13:39:22.243Z,18.50
2023-05-24T13:42:34.497Z,20.70
2023-05-24T13:45:37.074Z,21.00
2023-05-24T13:48:29.537Z,19.10
2023-05-24T13:51:44.040Z,19.40
2023-05-24T13:55:20.506Z,23.10
2023-05-24T13:58:23.989Z,27.90
2023-05-24T14:01:50.780Z,17.90
2023-05-24T14:05:27.949Z,27.20
2023-05-24T14:08:43.693Z,26.60
2023-05-24T14:12:02.938Z,21.70
2023-05-24T14:15:35.460Z,19.30
2023-05-24T14:18:27.776Z,21.00
2023-05-24T14:21:45.764Z,23.90
2023-05-24T14:25:00.342Z,19.60
2023-05-24T14:28:09.681Z,24.90
2023-05-24T14:31:25.897Z,20.10
2023-05-24T14:34:35.391Z,16.30
2023-05-24T14:37:40.649Z,23.10
2023-05-24T14:40:51.037Z,20.70
2023-05-24T14:44:14.596Z,15.00
2023-05-24T14:47:30.044Z,16.80
2023-05-24T14:50:21.819Z,19.10
2023-05-24T14:53:36.546Z,19.20
2023-05-24T14:56:42.155Z,20.40
2023-05-24T14:59:48.615Z,23.90
2023-05-24T15:02:34.250Z,17.60
2023-05-24T15:05:27.844Z,18.30
2023-05-24T15:08:56.307Z,15.40
2023-05-24T15:12:01.363Z,16.00
2023-05-24T15:15:07.866Z,16.30
2023-05-24T15:18:00.752Z,22.70
2023-05-24T15:21:06.999Z,16.10
2023-05-24T15:24:39.284Z,22.10
2023-05-24T15:27:54.012Z,14.10
2023-05-24T15:31:10.273Z,18.70
2023-05-24T15:34:16.816Z,22.20
2023-05-24T15:37:32.965Z,17.90
2023-05-24T15:40:42.111Z,20.30
2023-05-24T15:44:08.718Z,16.00
2023-05-24T15:47:02.662Z,22.50
2023-05-24T15:49:55.202Z,15.20
2023-05-24T15:53:18.714Z,15.50
2023-05-24T15:56:24.379Z,15.90
2023-05-24T15:59:40.899Z,16.50
2023-05-24T16:02:47.451Z,18.50
2023-05-24T16:06:00.752Z,22.40
2023-05-24T16:09:05.426Z,19.20
2023-05-24T16:12:02.908Z,17.30
2023-05-24T16:14:57.751Z,18.90
2023-05-24T16:17:58.836Z,15.10
2023-05-24T16:21:11.449Z,16.10
2023-05-24T16:24:08.054Z,16.20
2023-05-24T16:27:10.100Z,19.60
2023-05-24T16:29:54.004Z,16.60
2023-05-24T16:33:03.025Z,17.70
2023-05-24T16:35:55.290Z,17.20
2023-05-24T16:38:52.253Z,17.10
2023-05-24T16:41:47.720Z,14.60
2023-05-24T16:44:36.260Z,19.40
2023-05-24T16:47:22.905Z,17.40
2023-05-24T16:50:15.100Z,17.20
2023-05-24T16:53:11.066Z,18.30
2023-05-24T16:55:58.351Z,21.80
2023-05-24T16:58:51.367Z,18.10
2023-05-24T17:01:45.166Z,20.10
2023-05-24T17:04:47.755Z,17.70
2023-05-24T17:07:36.583Z,19.50
2023-05-24T17:10:25.491Z,14.50
2023-05-24T17:13:32.908Z,12.90
2023-05-24T17:16:28.168Z,16.00
2023-05-24T17:19:21.041Z,14.90
2023-05-24T17:25:07.339Z,15.30
2023-05-24T17:28:06.128Z,13.60
2023-05-24T17:30:59.631Z,16.30
2023-05-24T17:33:59.879Z,18.60
2023-05-24T17:36:56.779Z,15.40
2023-05-24T17:39:52.503Z,18.40
2023-05-24T17:42:44.015Z,18.20
2023-05-24T17:45:44.933Z,21.80
2023-05-24T17:48:47.945Z,14.10
2023-05-24T17:51:41.142Z,18.70
2023-05-24T17:54:33.414Z,17.30
2023-05-24T17:57:29.836Z,15.60
2023-05-24T18:00:19.639Z,20.60
2023-05-24T18:03:17.390Z,17.30
2023-05-24T18:06:36.980Z,17.60
2023-05-24T18:09:34.568Z,15.80
2023-05-24T18:12:23.723Z,19.40
2023-05-24T18:15:38.171Z,17.40
2023-05-24T18:18:30.674Z,17.60
2023-05-24T18:21:25.567Z,19.50
2023-05-24T18:24:27.720Z,14.60
2023-05-24T18:27:28.415Z,16.90
2023-05-24T18:30:32.011Z,15.80
2023-05-24T18:33:35.794Z,15.50
2023-05-24T18:36:27.675Z,16.90
2023-05-24T18:42:03.494Z,14.40
2023-05-24T18:44:52.948Z,18.80
2023-05-24T18:47:59.197Z,13.40
2023-05-24T18:50:50.808Z,17.10
2023-05-24T18:53:45.314Z,20.90
2023-05-24T18:56:56.983Z,14.90
2023-05-24T19:00:44.188Z,15.70
2023-05-24T19:03:33.634Z,17.40
2023-05-24T19:06:39.664Z,17.60
2023-05-24T19:10:06.042Z,17.90
2023-05-24T19:13:28.189Z,16.70
2023-05-24T19:16:58.632Z,15.30
2023-05-24T19:20:24.485Z,17.50
2023-05-24T19:23:13.499Z,18.10
2023-05-24T19:26:05.832Z,19.20
2023-05-24T19:29:11.942Z,20.80
2023-05-24T19:32:11.651Z,17.70
2023-05-24T19:35:11.107Z,17.10
2023-05-24T19:38:05.171Z,19.50
2023-05-24T19:40:57.372Z,18.00
2023-05-24T19:44:03.367Z,23.90
2023-05-24T19:46:49.718Z,18.00
2023-05-24T19:49:44.327Z,23.70
2023-05-24T19:52:30.853Z,23.90
2023-05-24T19:55:22.570Z,21.90
2023-05-24T19:58:26.986Z,19.40
2023-05-24T20:01:15.026Z,21.10
2023-05-24T20:04:06.241Z,20.80
2023-05-24T20:07:23.716Z,18.50
2023-05-24T20:10:27.508Z,18.40
2023-05-24T20:13:17.000Z,21.30
2023-05-24T20:16:16.630Z,21.60
2023-05-24T20:19:08.996Z,19.10
2023-05-24T20:22:24.830Z,20.40
2023-05-24T20:25:30.079Z,19.20
2023-05-24T20:28:50.065Z,16.80
2023-05-24T20:31:47.431Z,23.50
2023-05-24T20:35:03.161Z,21.80
2023-05-24T20:37:48.831Z,17.90
2023-05-24T20:41:03.503Z,19.40
2023-05-24T20:44:16.733Z,19.70
2023-05-24T20:47:27.552Z,18.70
2023-05-24T20:50:27.897Z,17.50
2023-05-24T20:53:19.916Z,19.00
2023-05-24T20:56:29.476Z,18.40
2023-05-24T20:59:20.937Z,17.40
2023-05-24T21:02:18.819Z,18.30
2023-05-24T21:05:08.243Z,17.00
2023-05-24T21:08:10.713Z,15.50
2023-05-24T21:11:29.601Z,17.40
2023-05-24T21:14:25.596Z,17.70
2023-05-24T21:17:22.071Z,17.20
2023-05-24T21:20:10.078Z,15.20
2023-05-24T21:23:05.287Z,18.70
2023-05-24T21:26:12.397Z,20.90
2023-05-24T21:29:22.183Z,18.70
2023-05-24T21:32:31.320Z,15.70
2023-05-24T21:35:40.206Z,18.30
2023-05-24T21:38:57.042Z,20.70
2023-05-24T21:42:10.544Z,18.40
2023-05-24T21:45:12.232Z,17.60
2023-05-24T21:48:01.644Z,18.10
2023-05-24T21:51:19.062Z,19.30
2023-05-24T21:54:19.925Z,16.40
2023-05-24T22:00:28.617Z,18.80
2023-05-24T22:03:54.248Z,15.50
2023-05-24T22:06:49.727Z,18.60
2023-05-24T22:09:56.711Z,14.70
2023-05-24T22:13:31.392Z,16.80
2023-05-24T22:16:43.922Z,14.40
2023-05-24T22:20:07.721Z,22.70
2023-05-24T22:23:22.212Z,16.00
2023-05-24T22:26:17.212Z,18.00
2023-05-24T22:29:26.766Z,21.00
2023-05-24T22:32:55.883Z,22.50
2023-05-24T22:36:13.214Z,18.00
2023-05-24T22:39:25.567Z,19.20
2023-05-24T22:42:42.240Z,22.80
2023-05-24T22:45:33.546Z,23.70
2023-05-24T22:48:52.862Z,17.70
2023-05-24T22:51:48.953Z,21.40
2023-05-24T22:54:47.497Z,18.80
2023-05-24T22:58:07.892Z,19.60
2023-05-24T23:01:22.607Z,19.90
2023-05-24T23:04:47.870Z,19.30
2023-05-24T23:07:58.348Z,17.20
2023-05-24T23:11:17.259Z,22.20
2023-05-24T23:14:39.955Z,20.50
2023-05-24T23:17:41.949Z,22.50
2023-05-24T23:20:42.049Z,22.00
2023-05-24T23:23:34.322Z,19.60
2023-05-24T23:26:26.931Z,20.20
2023-05-24T23:29:19.699Z,19.30
2023-05-24T23:32:33.448Z,20.10
2023-05-24T23:35:34.247Z,21.90
2023-05-24T23:38:40.484Z,20.00
2023-05-24T23:41:49.228Z,20.50
2023-05-24T23:44:55.530Z,20.00
2023-05-24T23:48:16.368Z,19.00
2023-05-24T23:51:19.512Z,20.70
2023-05-24T23:54:16.480Z,23.80
2023-05-24T23:57:52.250Z,22.40
